Map

Track Data

SID SEASON NUMBER BASIN SUBBASIN NAME ISO_TIME NATURE LAT LON WMO_WIND WMO_PRES WMO_AGENCY TRACK_TYPE DIST2LAND LANDFALL IFLAG USA_AGENCY USA_ATCF_ID USA_LAT USA_LON USA_RECORD USA_STATUS USA_WIND USA_PRES USA_SSHS USA_R34_NE USA_R34_SE USA_R34_SW USA_R34_NW USA_R50_NE USA_R50_SE USA_R50_SW USA_R50_NW USA_R64_NE USA_R64_SE USA_R64_SW USA_R64_NW USA_POCI USA_ROCI USA_RMW USA_EYE TOKYO_LAT TOKYO_LON TOKYO_GRADE TOKYO_WIND TOKYO_PRES TOKYO_R50_DIR TOKYO_R50_LONG TOKYO_R50_SHORT TOKYO_R30_DIR TOKYO_R30_LONG TOKYO_R30_SHORT TOKYO_LAND CMA_LAT CMA_LON CMA_CAT CMA_WIND CMA_PRES HKO_LAT HKO_LON HKO_CAT HKO_WIND HKO_PRES NEWDELHI_LAT NEWDELHI_LON NEWDELHI_GRADE NEWDELHI_WIND NEWDELHI_PRES NEWDELHI_CI NEWDELHI_DP NEWDELHI_POCI REUNION_LAT REUNION_LON REUNION_TYPE REUNION_WIND REUNION_PRES REUNION_TNUM REUNION_CI REUNION_RMW REUNION_R34_NE REUNION_R34_SE REUNION_R34_SW REUNION_R34_NW REUNION_R50_NE REUNION_R50_SE REUNION_R50_SW REUNION_R50_NW REUNION_R64_NE REUNION_R64_SE REUNION_R64_SW REUNION_R64_NW BOM_LAT BOM_LON BOM_TYPE BOM_WIND BOM_PRES BOM_TNUM BOM_CI BOM_RMW BOM_R34_NE BOM_R34_SE BOM_R34_SW BOM_R34_NW BOM_R50_NE BOM_R50_SE BOM_R50_SW BOM_R50_NW BOM_R64_NE BOM_R64_SE BOM_R64_SW BOM_R64_NW BOM_ROCI BOM_POCI BOM_EYE BOM_POS_METHOD BOM_PRES_METHOD NADI_LAT NADI_LON NADI_CAT NADI_WIND NADI_PRES WELLINGTON_LAT WELLINGTON_LON WELLINGTON_WIND WELLINGTON_PRES DS824_LAT DS824_LON DS824_STAGE DS824_WIND DS824_PRES TD9636_LAT TD9636_LON TD9636_STAGE TD9636_WIND TD9636_PRES TD9635_LAT TD9635_LON TD9635_WIND TD9635_PRES TD9635_ROCI NEUMANN_LAT NEUMANN_LON NEUMANN_CLASS NEUMANN_WIND NEUMANN_PRES MLC_LAT MLC_LON MLC_CLASS MLC_WIND MLC_PRES USA_GUST BOM_GUST BOM_GUST_PER REUNION_GUST REUNION_GUST_PER USA_SEAHGT USA_SEARAD_NE USA_SEARAD_SE USA_SEARAD_SW USA_SEARAD_NW STORM_SPEED STORM_DIR
1892032S12062 1892 5 SI MM NOT_NAMED 1892-02-01 06:00:00 NR -12.4000 62.1000 reunion main 981 941 _____O________ -1 -12.4000 62.1000 99 9.90000 9 240
1892032S12062 1892 5 SI MM NOT_NAMED 1892-02-01 09:00:00 NR -12.6322 61.6804 main 941 902 _____P________ -1 -12.6322 61.6804 99 9 240
1892032S12062 1892 5 SI MM NOT_NAMED 1892-02-01 12:00:00 NR -12.8620 61.2645 main 892 854 _____P________ -1 -12.8620 61.2645 99 9 240
1892032S12062 1892 5 SI MM NOT_NAMED 1892-02-01 15:00:00 NR -13.0879 60.8566 main 854 817 _____P________ -1 -13.0879 60.8566 99 9 240
1892032S12062 1892 5 SI MM NOT_NAMED 1892-02-01 18:00:00 NR -13.3081 60.4615 main 817 781 _____P________ -1 -13.3081 60.4615 99 9 240
1892032S12062 1892 5 SI MM NOT_NAMED 1892-02-01 21:00:00 NR -13.5211 60.0837 main 781 747 _____P________ -1 -13.5211 60.0837 99 8 240
1892032S12062 1892 5 SI MM NOT_NAMED 1892-02-02 00:00:00 NR -13.7250 59.7278 main 747 716 _____P________ -1 -13.7250 59.7278 99 8 239
1892032S12062 1892 5 SI MM NOT_NAMED 1892-02-02 03:00:00 NR -13.9185 59.3983 main 716 687 _____P________ -1 -13.9185 59.3983 99 7 238
1892032S12062 1892 5 SI MM NOT_NAMED 1892-02-02 06:00:00 NR -14.1000 59.1000 reunion main 687 659 _____O________ -1 -14.1000 59.1000 99 9.90000 7 237
1892032S12062 1892 5 SI MM NOT_NAMED 1892-02-02 09:00:00 NR -14.2692 58.8356 main 659 644 _____P________ -1 -14.2692 58.8356 99 6 236
1892032S12062 1892 5 SI MM NOT_NAMED 1892-02-02 12:00:00 NR -14.4312 58.6013 main 644 619 _____P________ -1 -14.4312 58.6013 99 5 233
1892032S12062 1892 5 SI MM NOT_NAMED 1892-02-02 15:00:00 NR -14.5921 58.3911 main 619 606 _____P________ -1 -14.5921 58.3911 99 5 230
1892032S12062 1892 5 SI MM NOT_NAMED 1892-02-02 18:00:00 NR -14.7583 58.1994 main 595 582 _____P________ -1 -14.7583 58.1994 99 5 226
1892032S12062 1892 5 SI MM NOT_NAMED 1892-02-02 21:00:00 NR -14.9360 58.0203 main 582 559 _____P________ -1 -14.9360 58.0203 99 5 222
1892032S12062 1892 5 SI MM NOT_NAMED 1892-02-03 00:00:00 NR -15.1314 57.8480 main 559 537 _____P________ -1 -15.1314 57.8480 99 5 219
1892032S12062 1892 5 SI MM NOT_NAMED 1892-02-03 03:00:00 NR -15.3507 57.6765 main 525 503 _____P________ -1 -15.3507 57.6765 99 6 216
1892032S12062 1892 5 SI MM NOT_NAMED 1892-02-03 06:00:00 NR -15.6000 57.5000 reunion main 503 481 _____O________ -1 -15.6000 57.5000 99 9.90000 7 218
1892032S12062 1892 5 SI MM NOT_NAMED 1892-02-03 09:00:00 NR -15.8653 57.2659 main 470 449 _____P________ -1 -15.8653 57.2659 99 7 219
1892032S12062 1892 5 SI MM NOT_NAMED 1892-02-03 12:00:00 NR -16.1562 57.0264 main 439 409 _____P________ -1 -16.1562 57.0264 99 8 217
1892032S12062 1892 5 SI MM NOT_NAMED 1892-02-03 15:00:00 NR -16.4737 56.7873 main 409 381 _____P________ -1 -16.4737 56.7873 99 8 214
1892032S12062 1892 5 SI MM NOT_NAMED 1892-02-03 18:00:00 NR -16.8189 56.5543 main 381 348 _____P________ -1 -16.8189 56.5543 99 8 211
1892032S12062 1892 5 SI MM NOT_NAMED 1892-02-03 21:00:00 NR -17.1929 56.3333 main 348 311 _____P________ -1 -17.1929 56.3333 99 9 208
1892032S12062 1892 5 SI MM NOT_NAMED 1892-02-04 00:00:00 NR -17.5970 56.1299 main 316 282 _____P________ -1 -17.5970 56.1299 99 9 203
1892032S12062 1892 5 SI MM NOT_NAMED 1892-02-04 03:00:00 NR -18.0322 55.9502 main 282 252 _____P________ -1 -18.0322 55.9502 99 10 199
1892032S12062 1892 5 SI MM NOT_NAMED 1892-02-04 06:00:00 NR -18.5000 55.8000 reunion main 252 223 _____O________ -1 -18.5000 55.8000 99 9.90000 10 196
1892032S12062 1892 5 SI MM NOT_NAMED 1892-02-04 09:00:00 NR -18.9938 55.6675 main 223 167 _____P________ -1 -18.9938 55.6675 99 11 193
1892032S12062 1892 5 SI MM NOT_NAMED 1892-02-04 12:00:00 NR -19.5234 55.5611 main 167 100 _____P________ -1 -19.5234 55.5611 99 11 189
1892032S12062 1892 5 SI MM NOT_NAMED 1892-02-04 15:00:00 NR -20.0824 55.4811 main 100 44 _____P________ -1 -20.0824 55.4811 99 12 186
1892032S12062 1892 5 SI MM NOT_NAMED 1892-02-04 18:00:00 NR -20.6647 55.4283 main 33 0 _____P________ -1 -20.6647 55.4283 99 12 184
1892032S12062 1892 5 SI MM NOT_NAMED 1892-02-04 21:00:00 NR -21.2638 55.4031 main 0 0 _____P________ -1 -21.2638 55.4031 99 12 181
1892032S12062 1892 5 SI MM NOT_NAMED 1892-02-05 00:00:00 NR -21.8736 55.4061 main 59 59 _____P________ -1 -21.8736 55.4061 99 12 178
1892032S12062 1892 5 SI MM NOT_NAMED 1892-02-05 03:00:00 NR -22.4878 55.4382 main 124 124 _____P________ -1 -22.4878 55.4382 99 12 176
1892032S12062 1892 5 SI MM NOT_NAMED 1892-02-05 06:00:00 NR -23.1000 55.5000 reunion main 190 190 _____O________ -1 -23.1000 55.5000 99 9.90000 13 173
1892032S12062 1892 5 SI MM NOT_NAMED 1892-02-05 09:00:00 NR -23.7420 55.5940 main 257 257 _____P________ -1 -23.7420 55.5940 99 13 171
1892032S12062 1892 5 SI MM NOT_NAMED 1892-02-05 12:00:00 NR -24.3935 55.7235 main 335 335 _____P________ -1 -24.3935 55.7235 99 13 169
1892032S12062 1892 5 SI MM NOT_NAMED 1892-02-05 15:00:00 NR -25.0421 55.8807 main 403 403 _____P________ -1 -25.0421 55.8807 99 13 167
1892032S12062 1892 5 SI MM NOT_NAMED 1892-02-05 18:00:00 NR -25.6752 56.0579 main 483 483 _____P________ -1 -25.6752 56.0579 99 13 165
1892032S12062 1892 5 SI MM NOT_NAMED 1892-02-05 21:00:00 NR -26.2800 56.2469 main 551 551 _____P________ -1 -26.2800 56.2469 99 12 164
1892032S12062 1892 5 SI MM NOT_NAMED 1892-02-06 00:00:00 NR -26.8441 56.4394 main 608 608 _____P________ -1 -26.8441 56.4394 99 11 163
1892032S12062 1892 5 SI MM NOT_NAMED 1892-02-06 03:00:00 NR -27.3550 56.6267 main 678 678 _____P________ -1 -27.3550 56.6267 99 10 161
1892032S12062 1892 5 SI MM NOT_NAMED 1892-02-06 06:00:00 NR -27.8000 56.8000 reunion main 725 725 _____O________ -1 -27.8000 56.8000 99 9.90000 9 161
1892032S12062 1892 5 SI MM NOT_NAMED 1892-02-06 09:00:00 NR -28.1706 56.9521 main 772 772 _____P________ -1 -28.1706 56.9521 99 7 160
1892032S12062 1892 5 SI MM NOT_NAMED 1892-02-06 12:00:00 NR -28.4728 57.0837 main 807 807 _____P________ -1 -28.4728 57.0837 99 6 158
1892032S12062 1892 5 SI MM NOT_NAMED 1892-02-06 15:00:00 NR -28.7165 57.1974 main 831 831 _____P________ -1 -28.7165 57.1974 99 5 157
1892032S12062 1892 5 SI MM NOT_NAMED 1892-02-06 18:00:00 NR -28.9116 57.2961 main 855 855 _____P________ -1 -28.9116 57.2961 99 4 155
1892032S12062 1892 5 SI MM NOT_NAMED 1892-02-06 21:00:00 NR -29.0677 57.3827 main 879 879 _____P________ -1 -29.0677 57.3827 99 3 153
1892032S12062 1892 5 SI MM NOT_NAMED 1892-02-07 00:00:00 NR -29.1947 57.4602 main 892 892 _____P________ -1 -29.1947 57.4602 99 3 151
1892032S12062 1892 5 SI MM NOT_NAMED 1892-02-07 03:00:00 NR -29.3022 57.5316 main 902 902 _____P________ -1 -29.3022 57.5316 99 2 150
1892032S12062 1892 5 SI MM NOT_NAMED 1892-02-07 06:00:00 NR -29.4000 57.6000 reunion main 915 _____O________ -1 -29.4000 57.6000 99 9.90000 2 151

About IBTrACS Database

This database is a web-friendly format of International Best Track Archive for Climate Stewardship (IBTrACS), a global best track data archive curated by NOAA dating back to 1842.

Updated: 2021-10-25